Time;durP1;ratioP1;P1;durP2;ratioP2;P2;SDS_P1;SDS_P2;PMS_P1;PMS_P2;Temp;Humidity;BMP_temperature;BMP_pressure;BME280_temperature;BME280_humidity;BME280_pressure;Samples;Min_cycle;Max_cycle;Signal;HPM_P1;HPM_P2
2021/09/08 00:00:10;;;;;;;12.63;11.25;;;18.80;99.90;;;;;;2084190;28;20055;-69
2021/09/08 00:01:10;;;;;;;12.15;10.90;;;18.80;99.90;;;;;;2079323;28;20022;-68
2021/09/08 00:02:11;;;;;;;13.57;11.68;;;18.80;99.90;;;;;;2079357;28;20028;-68
2021/09/08 00:03:11;;;;;;;12.00;10.45;;;18.80;99.90;;;;;;2079470;28;20093;-68
2021/09/08 00:04:12;;;;;;;13.15;10.02;;;18.80;99.90;;;;;;2079541;28;20040;-68
2021/09/08 00:05:12;;;;;;;12.45;10.05;;;18.80;99.90;;;;;;2079520;28;20029;-68
2021/09/08 00:06:13;;;;;;;11.30;9.85;;;18.80;99.90;;;;;;2079334;28;20382;-68
2021/09/08 00:07:13;;;;;;;11.55;10.02;;;18.80;99.90;;;;;;2079542;28;20022;-68
2021/09/08 00:08:14;;;;;;;11.93;9.70;;;18.80;99.90;;;;;;2079300;28;20021;-68
2021/09/08 00:09:17;;;;;;;12.02;10.80;;;18.80;99.90;;;;;;2079631;28;20044;-68
2021/09/08 00:10:18;;;;;;;11.35;10.15;;;18.70;99.90;;;;;;2081052;28;20108;-68
2021/09/08 00:11:19;;;;;;;10.95;9.60;;;18.70;99.90;;;;;;2081041;28;20029;-68
2021/09/08 00:12:19;;;;;;;10.95;9.70;;;18.70;99.90;;;;;;2080916;28;20032;-68
2021/09/08 00:13:20;;;;;;;10.90;9.80;;;18.70;99.90;;;;;;2080839;28;20017;-68
2021/09/08 00:14:20;;;;;;;12.45;10.23;;;18.70;99.90;;;;;;2080211;28;20032;-68
2021/09/08 00:15:21;;;;;;;13.63;10.73;;;18.70;99.90;;;;;;2085203;28;20028;-68
2021/09/08 00:16:22;;;;;;;11.43;10.25;;;18.70;99.90;;;;;;2083613;28;20021;-68
2021/09/08 00:17:22;;;;;;;12.18;10.20;;;18.70;99.90;;;;;;2081228;28;20033;-68
2021/09/08 00:18:23;;;;;;;11.13;10.02;;;18.70;99.90;;;;;;2080749;28;20033;-68
2021/09/08 00:19:24;;;;;;;11.55;10.30;;;18.70;99.90;;;;;;2080897;28;20706;-68
2021/09/08 00:20:24;;;;;;;11.50;10.10;;;18.60;99.90;;;;;;2080687;28;20079;-68
2021/09/08 00:21:25;;;;;;;13.40;10.40;;;18.60;99.90;;;;;;2080745;28;20726;-68
2021/09/08 00:22:25;;;;;;;14.75;10.30;;;18.60;99.90;;;;;;2080770;28;20017;-68
2021/09/08 00:23:26;;;;;;;11.32;10.05;;;18.60;99.90;;;;;;2080893;28;20032;-68
2021/09/08 00:24:26;;;;;;;11.55;10.35;;;18.50;99.90;;;;;;2080629;28;20040;-68
2021/09/08 00:25:27;;;;;;;10.68;9.60;;;18.50;99.90;;;;;;2080282;28;20486;-68
2021/09/08 00:26:28;;;;;;;13.05;10.85;;;18.50;99.90;;;;;;2080078;28;20033;-68
2021/09/08 00:27:28;;;;;;;11.45;10.23;;;18.50;99.90;;;;;;2080948;28;20048;-68
2021/09/08 00:28:29;;;;;;;11.93;10.68;;;18.50;99.90;;;;;;2081271;28;20068;-68
2021/09/08 00:29:29;;;;;;;11.48;10.35;;;18.50;99.90;;;;;;2086749;28;20187;-68
2021/09/08 00:30:30;;;;;;;15.13;10.30;;;18.50;99.90;;;;;;2087724;28;20031;-68
2021/09/08 00:31:30;;;;;;;13.77;10.50;;;18.40;99.90;;;;;;2080505;28;20029;-68
2021/09/08 00:32:31;;;;;;;12.88;10.52;;;18.40;99.90;;;;;;2081222;28;20056;-68
2021/09/08 00:33:32;;;;;;;11.25;10.07;;;18.40;99.90;;;;;;2080434;28;20036;-68
2021/09/08 00:34:32;;;;;;;12.48;10.10;;;18.40;99.90;;;;;;2080810;28;20517;-68
2021/09/08 00:35:33;;;;;;;11.10;9.73;;;18.40;99.90;;;;;;2080858;28;20029;-68
2021/09/08 00:36:33;;;;;;;11.07;9.95;;;18.30;99.90;;;;;;2081057;28;20088;-68
2021/09/08 00:37:38;;;;;;;11.13;10.02;;;18.30;99.90;;;;;;2080728;28;20032;-68
2021/09/08 00:38:38;;;;;;;11.23;10.13;;;18.30;99.90;;;;;;2080593;28;20112;-68
2021/09/08 00:39:39;;;;;;;12.50;10.32;;;18.30;99.90;;;;;;2080924;28;20079;-68
2021/09/08 00:40:40;;;;;;;13.70;10.02;;;18.20;99.90;;;;;;2080573;28;20413;-68
2021/09/08 00:41:40;;;;;;;12.15;10.70;;;18.20;99.90;;;;;;2080508;28;20022;-69
2021/09/08 00:42:43;;;;;;;11.73;9.95;;;18.20;99.90;;;;;;2080218;28;20025;-69
2021/09/08 00:43:43;;;;;;;10.88;9.15;;;18.20;99.90;;;;;;2082820;28;20028;-68
2021/09/08 00:44:45;;;;;;;12.77;9.70;;;18.20;99.90;;;;;;2088968;28;20025;-68
2021/09/08 00:45:54;;;;;;;11.38;10.00;;;18.20;99.90;;;;;;2081975;28;20033;-69
2021/09/08 00:46:57;;;;;;;11.27;9.50;;;18.20;99.90;;;;;;2081012;28;20462;-68
2021/09/08 00:47:58;;;;;;;11.45;9.35;;;18.10;99.90;;;;;;2084743;28;20428;-68
2021/09/08 00:48:59;;;;;;;11.80;10.02;;;18.10;99.90;;;;;;2082105;28;20049;-68
2021/09/08 00:49:59;;;;;;;12.13;9.95;;;18.10;99.90;;;;;;2080675;28;20057;-68
2021/09/08 00:51:00;;;;;;;10.98;9.38;;;18.00;99.90;;;;;;2080819;28;20034;-68
2021/09/08 00:52:04;;;;;;;12.15;10.88;;;18.00;99.90;;;;;;2080291;28;20021;-68
2021/09/08 00:53:04;;;;;;;12.75;10.40;;;18.00;99.90;;;;;;2080446;28;20013;-68
2021/09/08 00:54:11;;;;;;;12.10;10.75;;;18.00;99.90;;;;;;2080591;28;20033;-68
2021/09/08 00:55:11;;;;;;;11.90;10.23;;;17.90;99.90;;;;;;2080472;28;20022;-68
2021/09/08 00:56:12;;;;;;;15.07;10.45;;;17.90;99.90;;;;;;2082412;28;20530;-69
2021/09/08 00:57:14;;;;;;;11.50;10.27;;;17.90;99.90;;;;;;2081095;28;20026;-68
2021/09/08 00:58:16;;;;;;;11.70;10.52;;;17.90;99.90;;;;;;2084787;28;20033;-68
2021/09/08 00:59:16;;;;;;;12.98;10.32;;;17.90;99.90;;;;;;2080878;28;20025;-68
2021/09/08 01:00:17;;;;;;;11.70;10.13;;;17.90;99.90;;;;;;2087780;28;20029;-68
2021/09/08 01:01:19;;;;;;;11.05;9.80;;;17.90;99.90;;;;;;2088916;28;20687;-68
2021/09/08 01:02:20;;;;;;;12.75;10.57;;;17.90;99.90;;;;;;2088793;28;20051;-68
2021/09/08 01:03:20;;;;;;;11.13;9.48;;;17.80;99.90;;;;;;2088301;28;20481;-68
2021/09/08 01:04:21;;;;;;;13.63;10.63;;;17.80;99.90;;;;;;2088816;28;20070;-68
2021/09/08 01:05:23;;;;;;;14.70;10.95;;;17.80;99.90;;;;;;2083647;28;20097;-68
2021/09/08 01:06:24;;;;;;;13.43;9.73;;;17.80;99.90;;;;;;2086440;28;20021;-68
2021/09/08 01:07:26;;;;;;;13.73;10.93;;;17.80;99.90;;;;;;2088833;28;20048;-68
2021/09/08 01:08:27;;;;;;;13.65;10.73;;;17.70;99.90;;;;;;2088473;28;20017;-68
2021/09/08 01:09:28;;;;;;;17.95;9.85;;;17.70;99.90;;;;;;2086803;28;20036;-68
2021/09/08 01:10:29;;;;;;;13.27;11.10;;;17.70;99.90;;;;;;2088601;28;20029;-68
2021/09/08 01:11:30;;;;;;;13.20;10.80;;;17.70;99.90;;;;;;2083149;28;20437;-68
2021/09/08 01:12:30;;;;;;;14.20;10.93;;;17.60;99.90;;;;;;2081792;28;20029;-68
2021/09/08 01:13:32;;;;;;;11.63;10.43;;;17.60;99.90;;;;;;2080150;28;20032;-68
2021/09/08 01:14:33;;;;;;;11.63;10.43;;;17.60;99.90;;;;;;2083893;28;20548;-68
2021/09/08 01:15:33;;;;;;;12.68;10.43;;;17.60;99.90;;;;;;2080705;28;20037;-68
2021/09/08 01:16:34;;;;;;;11.57;10.38;;;17.60;99.90;;;;;;2080417;28;20121;-69
2021/09/08 01:17:35;;;;;;;14.95;10.70;;;17.60;99.90;;;;;;2080509;28;20033;-68
2021/09/08 01:18:36;;;;;;;12.10;10.85;;;17.50;99.90;;;;;;2080178;28;20033;-68
2021/09/08 01:19:37;;;;;;;12.32;10.50;;;17.50;99.90;;;;;;2080497;28;20020;-68
2021/09/08 01:20:38;;;;;;;12.23;10.70;;;17.50;99.90;;;;;;2080811;28;20025;-71
2021/09/08 01:21:38;;;;;;;11.90;10.02;;;17.50;99.90;;;;;;2079817;28;20021;-69
2021/09/08 01:22:53;;;;;;;12.88;11.48;;;17.50;99.90;;;;;;2083384;28;20025;-68
2021/09/08 01:23:53;;;;;;;13.38;11.55;;;17.40;99.90;;;;;;2088221;28;20032;-68
2021/09/08 01:24:54;;;;;;;12.23;10.93;;;17.40;99.90;;;;;;2080516;28;20499;-68
2021/09/08 01:25:54;;;;;;;14.95;10.43;;;17.40;99.90;;;;;;2080434;28;20097;-68
2021/09/08 01:26:56;;;;;;;12.35;9.80;;;17.40;99.90;;;;;;2080764;28;20018;-69
2021/09/08 01:27:57;;;;;;;11.43;10.07;;;17.40;99.90;;;;;;2080364;28;20397;-68
2021/09/08 01:28:57;;;;;;;11.07;9.98;;;17.40;99.90;;;;;;2080412;28;20021;-68
2021/09/08 01:29:58;;;;;;;11.27;9.77;;;17.40;99.90;;;;;;2080498;28;20029;-68
2021/09/08 01:30:59;;;;;;;12.10;10.75;;;17.30;99.90;;;;;;2081235;28;20037;-68
2021/09/08 01:32:00;;;;;;;12.07;10.88;;;17.30;99.90;;;;;;2081785;28;20022;-68
2021/09/08 01:33:01;;;;;;;12.07;10.65;;;17.30;99.90;;;;;;2081555;28;20021;-68
2021/09/08 01:34:05;;;;;;;13.48;10.25;;;17.30;99.90;;;;;;2089137;28;20024;-69
2021/09/08 01:35:06;;;;;;;12.38;11.20;;;17.30;99.90;;;;;;2090319;28;20023;-69
2021/09/08 01:36:07;;;;;;;11.98;10.38;;;17.20;99.90;;;;;;2088066;28;20480;-69
2021/09/08 01:37:09;;;;;;;13.05;10.40;;;17.20;99.90;;;;;;2090995;28;20363;-69
2021/09/08 01:38:10;;;;;;;11.32;9.68;;;17.20;99.90;;;;;;2088588;28;20059;-68
2021/09/08 01:39:16;;;;;;;12.68;11.32;;;17.20;99.90;;;;;;2082220;28;20089;-68
2021/09/08 01:40:18;;;;;;;11.85;10.32;;;17.20;99.90;;;;;;2081082;28;20036;-68
2021/09/08 01:41:19;;;;;;;13.85;10.43;;;17.20;99.90;;;;;;2082931;28;20036;-68
2021/09/08 01:42:19;;;;;;;11.77;10.43;;;17.10;99.90;;;;;;2082400;28;20049;-68
2021/09/08 01:43:24;;;;;;;12.65;10.85;;;17.10;99.90;;;;;;2079898;28;20025;-68
2021/09/08 01:44:25;;;;;;;11.35;10.15;;;17.10;99.90;;;;;;2080356;28;20025;-68
2021/09/08 01:45:26;;;;;;;13.32;10.98;;;17.10;99.90;;;;;;2080490;28;20026;-68
2021/09/08 01:46:27;;;;;;;12.15;10.85;;;17.10;99.90;;;;;;2080565;28;20025;-68
2021/09/08 01:47:27;;;;;;;11.73;10.38;;;17.10;99.90;;;;;;2080567;28;20101;-68
2021/09/08 01:48:28;;;;;;;13.65;10.38;;;17.10;99.90;;;;;;2085253;28;20040;-68
2021/09/08 01:49:28;;;;;;;14.57;10.18;;;17.00;99.90;;;;;;2080210;28;20053;-68
2021/09/08 01:50:29;;;;;;;14.50;11.32;;;17.00;99.90;;;;;;2085521;28;20025;-68
2021/09/08 01:51:29;;;;;;;11.85;10.73;;;17.00;99.90;;;;;;2086618;28;20079;-69
2021/09/08 01:52:30;;;;;;;14.18;11.27;;;17.00;99.90;;;;;;2080699;28;20072;-69
2021/09/08 01:53:31;;;;;;;13.18;10.98;;;17.00;99.90;;;;;;2079791;28;20033;-68
2021/09/08 01:54:31;;;;;;;15.45;11.73;;;17.00;99.90;;;;;;2086001;28;20021;-68
2021/09/08 01:55:32;;;;;;;14.57;11.15;;;17.00;99.90;;;;;;2080041;28;20037;-68
2021/09/08 01:56:33;;;;;;;16.10;11.07;;;16.90;99.90;;;;;;2084437;28;20037;-68
2021/09/08 01:57:34;;;;;;;15.23;10.82;;;16.90;99.90;;;;;;2079486;28;20017;-68
2021/09/08 01:58:35;;;;;;;14.00;11.27;;;16.90;99.90;;;;;;2080096;28;20033;-68
2021/09/08 01:59:35;;;;;;;15.00;11.18;;;16.90;99.90;;;;;;2080907;28;20236;-69
2021/09/08 02:00:36;;;;;;;13.25;11.13;;;16.90;99.90;;;;;;2088813;28;20029;-68
2021/09/08 02:01:37;;;;;;;12.95;11.48;;;16.90;99.90;;;;;;2088021;28;20036;-69
2021/09/08 02:02:37;;;;;;;14.70;11.27;;;16.90;99.90;;;;;;2088220;28;20064;-69
2021/09/08 02:03:38;;;;;;;13.50;11.07;;;16.90;99.90;;;;;;2087901;28;20032;-68
2021/09/08 02:04:38;;;;;;;13.45;10.82;;;16.90;99.90;;;;;;2088568;28;20131;-68
2021/09/08 02:05:39;;;;;;;12.75;10.68;;;16.90;99.90;;;;;;2088574;28;20461;-68
2021/09/08 02:06:50;;;;;;;14.95;11.57;;;16.80;99.90;;;;;;2088278;28;20025;-68
2021/09/08 02:07:51;;;;;;;11.48;10.27;;;16.90;99.90;;;;;;2087227;28;20017;-68
2021/09/08 02:08:59;;;;;;;14.65;12.27;;;16.80;99.90;;;;;;2088492;28;20029;-68
2021/09/08 02:09:59;;;;;;;12.27;10.57;;;16.80;99.90;;;;;;2081745;28;20071;-68
2021/09/08 02:11:00;;;;;;;13.70;10.32;;;16.80;99.90;;;;;;2080456;28;20057;-68
2021/09/08 02:12:00;;;;;;;11.38;10.18;;;16.80;99.90;;;;;;2079445;28;20031;-68
2021/09/08 02:13:03;;;;;;;16.65;11.30;;;16.80;99.90;;;;;;2079840;28;20454;-68
2021/09/08 02:14:04;;;;;;;15.63;10.98;;;16.80;99.90;;;;;;2079733;28;20026;-68
2021/09/08 02:15:06;;;;;;;14.38;10.48;;;16.80;99.90;;;;;;2079976;28;20026;-68
2021/09/08 02:16:07;;;;;;;13.55;11.35;;;16.80;99.90;;;;;;2080221;28;20398;-68
2021/09/08 02:17:07;;;;;;;12.52;11.23;;;16.80;99.90;;;;;;2080171;28;20021;-69
2021/09/08 02:18:08;;;;;;;13.70;10.98;;;16.70;99.90;;;;;;2080032;28;20036;-69
2021/09/08 02:19:08;;;;;;;12.13;10.75;;;16.70;99.90;;;;;;2080066;28;20378;-68
2021/09/08 02:20:10;;;;;;;13.02;10.45;;;16.70;99.90;;;;;;2080061;28;20425;-68
2021/09/08 02:21:11;;;;;;;12.38;10.93;;;16.70;99.90;;;;;;2080014;28;20022;-68
2021/09/08 02:22:12;;;;;;;14.55;11.27;;;16.70;99.90;;;;;;2084610;28;20039;-68
2021/09/08 02:23:12;;;;;;;12.98;10.48;;;16.70;99.90;;;;;;2080035;28;20029;-68
2021/09/08 02:24:13;;;;;;;14.75;12.27;;;16.60;99.90;;;;;;2079737;28;20386;-68
2021/09/08 02:25:13;;;;;;;12.38;11.18;;;16.60;99.90;;;;;;2080196;28;20025;-68
2021/09/08 02:26:15;;;;;;;14.02;11.35;;;16.60;99.90;;;;;;2080237;28;20497;-68
2021/09/08 02:27:15;;;;;;;13.93;10.65;;;16.60;99.90;;;;;;2079800;28;20018;-68
2021/09/08 02:28:20;;;;;;;14.82;11.68;;;16.60;99.90;;;;;;2080232;28;20017;-68
2021/09/08 02:29:21;;;;;;;12.70;10.82;;;16.60;99.90;;;;;;2079678;28;20045;-68
2021/09/08 02:30:21;;;;;;;16.05;12.23;;;16.60;99.90;;;;;;2079855;28;20032;-68
2021/09/08 02:31:22;;;;;;;13.00;11.05;;;16.50;99.90;;;;;;2079837;28;20059;-68
2021/09/08 02:32:22;;;;;;;12.60;11.32;;;16.60;99.90;;;;;;2079878;28;20032;-69
2021/09/08 02:33:23;;;;;;;13.05;11.02;;;16.50;99.90;;;;;;2079296;28;20032;-68
2021/09/08 02:34:24;;;;;;;13.52;11.02;;;16.50;99.90;;;;;;2079814;28;20029;-68
2021/09/08 02:35:24;;;;;;;12.50;11.23;;;16.50;99.90;;;;;;2079879;28;20033;-68
2021/09/08 02:36:25;;;;;;;11.77;10.43;;;16.50;99.90;;;;;;2087475;28;20049;-67
2021/09/08 02:37:25;;;;;;;12.40;11.10;;;16.50;99.90;;;;;;2083448;28;20021;-67
2021/09/08 02:38:27;;;;;;;15.00;11.93;;;16.40;99.90;;;;;;2079986;28;20473;-67
2021/09/08 02:39:28;;;;;;;12.10;9.95;;;16.40;99.90;;;;;;2079626;28;20068;-67
2021/09/08 02:40:28;;;;;;;12.20;10.93;;;16.40;99.90;;;;;;2079972;28;20462;-67
2021/09/08 02:41:29;;;;;;;13.55;12.05;;;16.40;99.90;;;;;;2082847;28;20025;-67
2021/09/08 02:42:29;;;;;;;13.57;10.93;;;16.40;99.90;;;;;;2087228;28;20044;-67
2021/09/08 02:43:30;;;;;;;13.43;11.52;;;16.40;99.90;;;;;;2086382;28;20048;-69
2021/09/08 02:44:30;;;;;;;12.82;10.68;;;16.40;99.90;;;;;;2079895;28;20057;-69
2021/09/08 02:45:31;;;;;;;13.80;11.40;;;16.40;99.90;;;;;;2079722;28;20667;-69
2021/09/08 02:46:32;;;;;;;13.65;11.85;;;16.40;99.90;;;;;;2079965;28;20025;-69
2021/09/08 02:47:32;;;;;;;15.70;11.57;;;16.40;99.90;;;;;;2080796;28;20048;-69
2021/09/08 02:48:34;;;;;;;14.15;11.60;;;16.40;99.90;;;;;;2084972;28;20038;-69
2021/09/08 02:49:35;;;;;;;16.67;11.27;;;16.30;99.90;;;;;;2081148;28;20079;-67
2021/09/08 02:50:35;;;;;;;12.75;10.68;;;16.30;99.90;;;;;;2081432;28;20091;-67
2021/09/08 02:51:36;;;;;;;13.13;11.05;;;16.30;99.90;;;;;;2079572;28;20052;-67
2021/09/08 02:52:36;;;;;;;13.38;11.00;;;16.30;99.90;;;;;;2079593;28;20148;-67
2021/09/08 02:53:37;;;;;;;13.77;10.65;;;16.30;99.90;;;;;;2079386;28;20021;-67
2021/09/08 02:54:38;;;;;;;15.43;12.48;;;16.30;99.90;;;;;;2079796;28;20041;-69
2021/09/08 02:55:38;;;;;;;15.95;11.73;;;16.20;99.90;;;;;;2079718;28;20029;-69
2021/09/08 02:56:39;;;;;;;13.57;10.80;;;16.30;99.90;;;;;;2082144;28;20030;-69
2021/09/08 02:57:39;;;;;;;14.57;11.00;;;16.20;99.90;;;;;;2079862;28;20036;-67
2021/09/08 02:58:40;;;;;;;12.13;10.93;;;16.20;99.90;;;;;;2079563;28;20051;-69
2021/09/08 02:59:40;;;;;;;12.55;10.63;;;16.20;99.90;;;;;;2079255;28;20100;-67
2021/09/08 03:00:41;;;;;;;14.00;10.73;;;16.20;99.90;;;;;;2070538;28;20025;-69
2021/09/08 03:01:42;;;;;;;14.20;11.63;;;16.20;99.90;;;;;;2078912;28;20049;-69
2021/09/08 03:02:43;;;;;;;14.70;11.05;;;16.20;99.90;;;;;;2079358;28;20052;-71
2021/09/08 03:03:43;;;;;;;13.07;10.65;;;16.20;99.90;;;;;;2080832;28;21110;-69
2021/09/08 03:04:44;;;;;;;16.27;11.73;;;16.10;99.90;;;;;;2085093;28;20021;-67
2021/09/08 03:05:45;;;;;;;12.73;11.43;;;16.10;99.90;;;;;;2082978;28;20060;-67
2021/09/08 03:06:48;;;;;;;12.45;10.77;;;16.10;99.90;;;;;;2082422;28;20036;-69
2021/09/08 03:07:48;;;;;;;12.48;10.68;;;16.10;99.90;;;;;;2087803;28;20021;-69
2021/09/08 03:08:49;;;;;;;12.02;10.82;;;16.10;99.90;;;;;;2087974;28;20037;-69
2021/09/08 03:09:49;;;;;;;12.60;10.82;;;16.10;99.90;;;;;;2082865;28;20726;-69
2021/09/08 03:10:50;;;;;;;13.00;11.07;;;16.10;99.90;;;;;;2078895;28;20097;-69
2021/09/08 03:11:50;;;;;;;13.20;10.77;;;16.10;99.90;;;;;;2079298;28;20034;-69
2021/09/08 03:12:51;;;;;;;12.30;11.00;;;16.00;99.90;;;;;;2081204;28;20439;-67
2021/09/08 03:13:52;;;;;;;12.23;10.95;;;16.00;99.90;;;;;;2084037;28;20347;-67
2021/09/08 03:14:52;;;;;;;11.18;9.98;;;16.00;99.90;;;;;;2083157;28;20086;-69
2021/09/08 03:15:53;;;;;;;14.70;11.50;;;16.00;99.90;;;;;;2086451;28;20029;-67
2021/09/08 03:16:53;;;;;;;12.77;11.35;;;16.00;99.90;;;;;;2079790;28;20029;-69
2021/09/08 03:17:54;;;;;;;14.35;11.20;;;16.00;99.90;;;;;;2079908;28;20040;-69
2021/09/08 03:18:54;;;;;;;13.23;11.15;;;16.00;99.90;;;;;;2079567;28;20043;-69
2021/09/08 03:19:55;;;;;;;13.45;11.77;;;15.90;99.90;;;;;;2079742;28;20105;-69
2021/09/08 03:20:55;;;;;;;15.88;11.55;;;15.90;99.90;;;;;;2079400;28;20033;-69
2021/09/08 03:21:56;;;;;;;13.55;11.70;;;15.90;99.90;;;;;;2079676;28;20032;-69
2021/09/08 03:22:56;;;;;;;14.30;11.68;;;15.90;99.90;;;;;;2079203;28;20026;-69
2021/09/08 03:23:57;;;;;;;14.18;11.25;;;15.90;99.90;;;;;;2079815;28;20056;-69
2021/09/08 03:24:58;;;;;;;12.45;11.07;;;15.90;99.90;;;;;;2079709;28;20109;-70
2021/09/08 03:25:58;;;;;;;13.38;11.43;;;15.90;99.90;;;;;;2079720;28;20028;-69
2021/09/08 03:26:59;;;;;;;13.15;11.18;;;15.80;99.90;;;;;;2086478;28;20025;-69
2021/09/08 03:28:00;;;;;;;12.55;11.30;;;15.80;99.90;;;;;;2080211;28;20026;-69
2021/09/08 03:29:00;;;;;;;13.77;11.95;;;15.90;99.90;;;;;;2079253;28;20026;-69
2021/09/08 03:30:01;;;;;;;13.50;11.90;;;15.80;99.90;;;;;;2079757;28;20450;-69
2021/09/08 03:31:01;;;;;;;14.45;11.43;;;15.80;99.90;;;;;;2079440;28;20029;-69
2021/09/08 03:32:03;;;;;;;13.30;11.90;;;15.80;99.90;;;;;;2079357;28;20048;-67
2021/09/08 03:33:04;;;;;;;15.40;12.30;;;15.80;99.90;;;;;;2079524;28;20101;-69
2021/09/08 03:34:04;;;;;;;13.13;11.80;;;15.80;99.90;;;;;;2079507;28;20470;-67
2021/09/08 03:35:06;;;;;;;15.85;11.57;;;15.80;99.90;;;;;;2079704;28;20025;-69
2021/09/08 03:36:06;;;;;;;11.43;10.30;;;15.80;99.90;;;;;;2079608;28;20033;-70
2021/09/08 03:37:07;;;;;;;15.15;11.38;;;15.80;99.90;;;;;;2079397;28;20025;-69
2021/09/08 03:38:07;;;;;;;11.88;10.68;;;15.80;99.90;;;;;;2079767;28;20021;-68
2021/09/08 03:39:08;;;;;;;11.13;10.00;;;15.80;99.90;;;;;;2079629;28;20074;-68
2021/09/08 03:40:09;;;;;;;11.95;10.75;;;15.80;99.90;;;;;;2079866;28;20517;-67
2021/09/08 03:41:10;;;;;;;12.82;11.32;;;15.70;99.90;;;;;;2086931;28;20025;-67
2021/09/08 03:42:11;;;;;;;15.27;11.55;;;15.70;99.90;;;;;;2082574;28;20028;-67
2021/09/08 03:43:11;;;;;;;16.52;11.13;;;15.70;99.90;;;;;;2078629;28;20433;-67
2021/09/08 03:44:12;;;;;;;13.98;10.63;;;15.70;99.90;;;;;;2079027;28;20026;-67
2021/09/08 03:45:13;;;;;;;14.68;10.82;;;15.70;99.90;;;;;;2081142;28;20021;-67
2021/09/08 03:46:14;;;;;;;12.27;10.57;;;15.70;99.90;;;;;;2080797;28;20034;-67
2021/09/08 03:47:14;;;;;;;12.40;11.10;;;15.70;99.90;;;;;;2080379;28;20056;-67
2021/09/08 03:48:15;;;;;;;14.02;10.45;;;15.60;99.90;;;;;;2086038;28;20028;-67
2021/09/08 03:49:16;;;;;;;12.20;10.82;;;15.60;99.90;;;;;;2081225;28;20048;-67
2021/09/08 03:50:16;;;;;;;14.65;11.27;;;15.70;99.90;;;;;;2081214;28;20028;-69
2021/09/08 03:51:17;;;;;;;12.45;11.15;;;15.60;99.90;;;;;;2081338;28;20026;-67
2021/09/08 03:52:18;;;;;;;13.98;11.27;;;15.60;99.90;;;;;;2080798;28;20026;-69
2021/09/08 03:53:18;;;;;;;12.02;10.13;;;15.60;99.90;;;;;;2080957;28;21580;-67
2021/09/08 03:54:19;;;;;;;12.15;10.95;;;15.60;99.90;;;;;;2084338;28;20032;-67
2021/09/08 03:55:19;;;;;;;13.35;11.10;;;15.60;99.90;;;;;;2083808;28;20030;-67
2021/09/08 03:56:20;;;;;;;11.93;10.73;;;15.60;99.90;;;;;;2082921;28;20056;-67
2021/09/08 03:57:21;;;;;;;13.07;11.57;;;15.60;99.90;;;;;;2080917;28;20026;-67
2021/09/08 03:58:21;;;;;;;13.05;11.40;;;15.50;99.90;;;;;;2081021;28;20033;-67
2021/09/08 03:59:22;;;;;;;12.45;11.15;;;15.60;99.90;;;;;;2081226;28;20494;-67
2021/09/08 04:00:23;;;;;;;12.88;11.57;;;15.50;99.90;;;;;;2088414;28;20025;-68
2021/09/08 04:01:24;;;;;;;12.35;10.95;;;15.50;99.90;;;;;;2089219;28;20024;-67
2021/09/08 04:02:24;;;;;;;12.75;11.27;;;15.50;99.90;;;;;;2089374;28;20036;-67
2021/09/08 04:03:25;;;;;;;13.77;11.30;;;15.50;99.90;;;;;;2089018;28;20686;-69
2021/09/08 04:04:25;;;;;;;12.30;11.00;;;15.50;99.90;;;;;;2089176;28;20075;-69
2021/09/08 04:05:26;;;;;;;13.07;11.13;;;15.50;99.90;;;;;;2089535;28;20029;-69
2021/09/08 04:06:26;;;;;;;12.38;10.35;;;15.50;99.90;;;;;;2089503;28;20044;-69
2021/09/08 04:07:27;;;;;;;13.73;11.68;;;15.50;99.90;;;;;;2089230;28;20056;-69
2021/09/08 04:08:28;;;;;;;12.30;11.00;;;15.40;99.90;;;;;;2083631;28;20037;-69
2021/09/08 04:09:28;;;;;;;12.60;10.93;;;15.40;99.90;;;;;;2080012;28;20114;-69
2021/09/08 04:10:29;;;;;;;11.98;10.68;;;15.50;99.90;;;;;;2080711;28;20420;-67
2021/09/08 04:11:29;;;;;;;13.63;11.25;;;15.40;99.90;;;;;;2080639;28;20025;-68
2021/09/08 04:12:30;;;;;;;13.85;11.00;;;15.40;99.90;;;;;;2080958;28;20787;-67
2021/09/08 04:13:30;;;;;;;12.15;10.80;;;15.40;99.90;;;;;;2080808;28;20493;-67
2021/09/08 04:14:31;;;;;;;13.52;12.13;;;15.40;99.90;;;;;;2081113;28;20029;-67
2021/09/08 04:15:33;;;;;;;12.23;10.55;;;15.40;99.90;;;;;;2080788;28;20485;-67
2021/09/08 04:16:33;;;;;;;13.63;11.48;;;15.40;99.90;;;;;;2080919;28;20034;-67
2021/09/08 04:17:34;;;;;;;16.75;10.88;;;15.40;99.90;;;;;;2080813;28;20040;-67
2021/09/08 04:18:34;;;;;;;12.65;11.35;;;15.40;99.90;;;;;;2081381;28;20025;-67
2021/09/08 04:19:35;;;;;;;14.32;11.15;;;15.40;99.90;;;;;;2080826;28;20516;-67
2021/09/08 04:20:36;;;;;;;15.07;11.35;;;15.40;99.90;;;;;;2080754;28;20014;-67
2021/09/08 04:21:36;;;;;;;13.10;11.43;;;15.30;99.90;;;;;;2080687;28;20049;-67
2021/09/08 04:22:37;;;;;;;13.75;11.40;;;15.40;99.90;;;;;;2083539;28;20041;-67
2021/09/08 04:23:38;;;;;;;14.75;11.38;;;15.30;99.90;;;;;;2081187;28;20033;-67
2021/09/08 04:24:38;;;;;;;12.38;11.07;;;15.30;99.90;;;;;;2081025;28;20486;-67
2021/09/08 04:25:40;;;;;;;13.02;11.70;;;15.30;99.90;;;;;;2080617;28;20638;-67
2021/09/08 04:26:40;;;;;;;13.52;11.88;;;15.30;99.90;;;;;;2080961;28;20509;-67
2021/09/08 04:27:41;;;;;;;15.15;11.80;;;15.30;99.90;;;;;;2080813;28;20369;-67
2021/09/08 04:28:42;;;;;;;12.70;11.40;;;15.30;99.90;;;;;;2080994;28;20038;-67
2021/09/08 04:29:42;;;;;;;13.35;11.90;;;15.30;99.90;;;;;;2080953;28;20045;-68
2021/09/08 04:30:43;;;;;;;13.32;11.45;;;15.30;99.90;;;;;;2080817;28;20033;-67
2021/09/08 04:31:43;;;;;;;12.23;10.73;;;15.30;99.90;;;;;;2080671;28;20048;-67
2021/09/08 04:32:44;;;;;;;13.23;11.82;;;15.30;99.90;;;;;;2080609;28;20033;-67
2021/09/08 04:33:45;;;;;;;13.18;11.65;;;15.30;99.90;;;;;;2080773;28;20029;-69
2021/09/08 04:34:45;;;;;;;15.02;11.93;;;15.20;99.90;;;;;;2081048;28;20038;-67
2021/09/08 04:35:46;;;;;;;14.05;11.32;;;15.20;99.90;;;;;;2082005;28;20025;-68
2021/09/08 04:36:46;;;;;;;14.90;12.32;;;15.20;99.90;;;;;;2088590;28;20033;-67
2021/09/08 04:37:47;;;;;;;13.98;12.45;;;15.20;99.90;;;;;;2080730;28;20029;-67
2021/09/08 04:38:47;;;;;;;12.02;10.75;;;15.20;99.90;;;;;;2080614;28;20164;-68
2021/09/08 04:39:48;;;;;;;13.95;11.88;;;15.20;99.90;;;;;;2080957;28;20087;-67
2021/09/08 04:40:48;;;;;;;15.57;12.50;;;15.20;99.90;;;;;;2080848;28;20481;-67
2021/09/08 04:41:49;;;;;;;14.13;11.95;;;15.20;99.90;;;;;;2084435;28;20057;-67
2021/09/08 04:42:49;;;;;;;14.18;12.35;;;15.20;99.90;;;;;;2080596;28;20033;-67
2021/09/08 04:43:50;;;;;;;13.50;11.55;;;15.20;99.90;;;;;;2081060;28;20592;-67
2021/09/08 04:44:50;;;;;;;16.75;12.75;;;15.20;99.90;;;;;;2080805;28;20049;-67
2021/09/08 04:45:51;;;;;;;16.02;12.82;;;15.20;99.90;;;;;;2080710;28;20032;-67
2021/09/08 04:46:52;;;;;;;14.35;12.40;;;15.10;99.90;;;;;;2080719;28;20025;-67
2021/09/08 04:47:52;;;;;;;13.80;12.40;;;15.20;99.90;;;;;;2084747;28;20035;-67
2021/09/08 04:48:53;;;;;;;14.35;12.93;;;15.20;99.90;;;;;;2082396;28;20044;-67
2021/09/08 04:49:53;;;;;;;13.82;12.35;;;15.10;99.90;;;;;;2082793;28;20096;-67
2021/09/08 04:50:54;;;;;;;16.00;12.70;;;15.10;99.90;;;;;;2088978;28;20421;-67
2021/09/08 04:51:55;;;;;;;14.77;11.98;;;15.10;99.90;;;;;;2084124;28;20544;-67
2021/09/08 04:52:55;;;;;;;17.08;11.90;;;15.10;99.90;;;;;;2079571;28;20103;-67
2021/09/08 04:53:56;;;;;;;14.45;12.48;;;15.10;99.90;;;;;;2079846;28;20032;-68
2021/09/08 04:54:57;;;;;;;16.95;12.60;;;15.10;99.90;;;;;;2080704;28;20110;-67
2021/09/08 04:55:57;;;;;;;13.27;11.82;;;15.10;99.90;;;;;;2079782;28;20471;-67
2021/09/08 04:56:58;;;;;;;13.02;11.63;;;15.10;99.90;;;;;;2082472;28;20409;-67
2021/09/08 04:57:58;;;;;;;13.60;12.00;;;15.10;99.90;;;;;;2080694;28;20029;-67
2021/09/08 04:58:59;;;;;;;14.65;12.48;;;15.10;99.90;;;;;;2080570;28;20031;-68
2021/09/08 04:59:59;;;;;;;15.18;12.13;;;15.10;99.90;;;;;;2084897;28;20392;-67
2021/09/08 05:01:00;;;;;;;19.33;13.15;;;15.10;99.90;;;;;;2089076;28;20063;-67
2021/09/08 05:02:00;;;;;;;14.73;12.27;;;15.10;99.90;;;;;;2089138;28;20028;-67
2021/09/08 05:03:01;;;;;;;13.90;12.43;;;15.10;99.90;;;;;;2088198;28;20024;-67
2021/09/08 05:04:02;;;;;;;14.82;12.13;;;15.10;99.90;;;;;;2086813;28;20025;-67
2021/09/08 05:05:03;;;;;;;13.48;11.27;;;15.10;99.90;;;;;;2087640;28;20075;-67
2021/09/08 05:06:04;;;;;;;13.13;11.73;;;15.10;99.90;;;;;;2093051;28;20469;-67
2021/09/08 05:07:04;;;;;;;12.50;11.07;;;15.00;99.90;;;;;;2087017;28;20372;-67
2021/09/08 05:08:05;;;;;;;11.60;10.50;;;15.10;99.90;;;;;;2093867;28;20048;-67
2021/09/08 05:09:05;;;;;;;15.57;12.30;;;15.10;99.90;;;;;;2087298;28;20012;-67